sensor_id;sensor_type;location;lat;lon;timestamp;P1;durP1;ratioP1;P2;durP2;ratioP2
8478;SDS011;4276;49.354;6.804;2023-05-10T00:01:08;2.65;;;2.50;;
8478;SDS011;4276;49.354;6.804;2023-05-10T00:03:34;3.25;;;3.05;;
8478;SDS011;4276;49.354;6.804;2023-05-10T00:06:01;3.55;;;2.85;;
8478;SDS011;4276;49.354;6.804;2023-05-10T00:08:27;2.80;;;2.58;;
8478;SDS011;4276;49.354;6.804;2023-05-10T00:10:54;2.70;;;2.60;;
8478;SDS011;4276;49.354;6.804;2023-05-10T00:13:21;2.65;;;2.47;;
8478;SDS011;4276;49.354;6.804;2023-05-10T00:15:48;2.63;;;2.42;;
8478;SDS011;4276;49.354;6.804;2023-05-10T00:18:15;2.40;;;2.20;;
8478;SDS011;4276;49.354;6.804;2023-05-10T00:20:41;2.60;;;2.40;;
8478;SDS011;4276;49.354;6.804;2023-05-10T00:23:07;2.55;;;2.35;;
8478;SDS011;4276;49.354;6.804;2023-05-10T00:25:34;2.60;;;2.42;;
8478;SDS011;4276;49.354;6.804;2023-05-10T00:28:00;2.33;;;2.13;;
8478;SDS011;4276;49.354;6.804;2023-05-10T00:30:27;2.40;;;2.22;;
8478;SDS011;4276;49.354;6.804;2023-05-10T00:32:54;2.42;;;2.30;;
8478;SDS011;4276;49.354;6.804;2023-05-10T00:35:20;2.35;;;2.25;;
8478;SDS011;4276;49.354;6.804;2023-05-10T00:37:47;2.50;;;2.40;;
8478;SDS011;4276;49.354;6.804;2023-05-10T00:40:14;2.53;;;2.42;;
8478;SDS011;4276;49.354;6.804;2023-05-10T00:42:41;2.33;;;2.17;;
8478;SDS011;4276;49.354;6.804;2023-05-10T00:45:07;2.40;;;2.20;;
8478;SDS011;4276;49.354;6.804;2023-05-10T00:47:34;2.35;;;2.25;;
8478;SDS011;4276;49.354;6.804;2023-05-10T00:50:01;3.38;;;2.30;;
8478;SDS011;4276;49.354;6.804;2023-05-10T00:52:28;2.30;;;2.20;;
8478;SDS011;4276;49.354;6.804;2023-05-10T00:54:55;2.10;;;2.00;;
8478;SDS011;4276;49.354;6.804;2023-05-10T00:57:21;2.55;;;2.45;;
8478;SDS011;4276;49.354;6.804;2023-05-10T00:59:49;2.50;;;2.40;;
8478;SDS011;4276;49.354;6.804;2023-05-10T01:02:15;2.97;;;2.78;;
8478;SDS011;4276;49.354;6.804;2023-05-10T01:04:42;3.00;;;2.80;;
8478;SDS011;4276;49.354;6.804;2023-05-10T01:07:09;3.28;;;2.97;;
8478;SDS011;4276;49.354;6.804;2023-05-10T01:09:36;3.70;;;3.40;;
8478;SDS011;4276;49.354;6.804;2023-05-10T01:12:03;3.50;;;3.30;;
8478;SDS011;4276;49.354;6.804;2023-05-10T01:14:30;3.38;;;3.10;;
8478;SDS011;4276;49.354;6.804;2023-05-10T01:16:56;3.92;;;3.63;;
8478;SDS011;4276;49.354;6.804;2023-05-10T01:19:23;3.50;;;3.20;;
8478;SDS011;4276;49.354;6.804;2023-05-10T01:21:58;3.72;;;3.45;;
8478;SDS011;4276;49.354;6.804;2023-05-10T01:32:54;4.93;;;3.80;;
8478;SDS011;4276;49.354;6.804;2023-05-10T01:40:26;5.00;;;4.70;;
8478;SDS011;4276;49.354;6.804;2023-05-10T01:43:01;5.10;;;4.70;;
8478;SDS011;4276;49.354;6.804;2023-05-10T01:45:41;4.93;;;4.57;;
8478;SDS011;4276;49.354;6.804;2023-05-10T01:48:17;5.13;;;4.82;;
8478;SDS011;4276;49.354;6.804;2023-05-10T01:50:45;4.80;;;4.50;;
8478;SDS011;4276;49.354;6.804;2023-05-10T01:53:12;5.15;;;4.75;;
8478;SDS011;4276;49.354;6.804;2023-05-10T01:55:41;5.40;;;4.93;;
8478;SDS011;4276;49.354;6.804;2023-05-10T01:58:10;5.88;;;5.47;;
8478;SDS011;4276;49.354;6.804;2023-05-10T02:00:40;5.90;;;5.50;;
8478;SDS011;4276;49.354;6.804;2023-05-10T02:03:11;6.07;;;5.55;;
8478;SDS011;4276;49.354;6.804;2023-05-10T02:05:38;6.50;;;5.88;;
8478;SDS011;4276;49.354;6.804;2023-05-10T02:08:05;6.60;;;6.00;;
8478;SDS011;4276;49.354;6.804;2023-05-10T02:10:34;6.63;;;6.13;;
8478;SDS011;4276;49.354;6.804;2023-05-10T02:13:02;7.07;;;6.47;;
8478;SDS011;4276;49.354;6.804;2023-05-10T02:15:29;7.93;;;7.22;;
8478;SDS011;4276;49.354;6.804;2023-05-10T02:17:56;8.07;;;7.30;;
8478;SDS011;4276;49.354;6.804;2023-05-10T02:20:23;7.40;;;6.80;;
8478;SDS011;4276;49.354;6.804;2023-05-10T02:22:51;8.00;;;7.40;;
8478;SDS011;4276;49.354;6.804;2023-05-10T02:25:19;6.78;;;6.28;;
8478;SDS011;4276;49.354;6.804;2023-05-10T02:27:46;7.50;;;6.80;;
8478;SDS011;4276;49.354;6.804;2023-05-10T02:30:13;7.10;;;6.60;;
8478;SDS011;4276;49.354;6.804;2023-05-10T02:32:41;7.05;;;6.45;;
8478;SDS011;4276;49.354;6.804;2023-05-10T02:35:08;7.38;;;6.78;;
8478;SDS011;4276;49.354;6.804;2023-05-10T02:37:36;6.28;;;5.68;;
8478;SDS011;4276;49.354;6.804;2023-05-10T02:40:04;5.85;;;5.25;;
8478;SDS011;4276;49.354;6.804;2023-05-10T02:42:32;4.35;;;4.00;;
8478;SDS011;4276;49.354;6.804;2023-05-10T02:45:04;3.80;;;3.55;;
8478;SDS011;4276;49.354;6.804;2023-05-10T02:47:34;3.90;;;3.60;;
8478;SDS011;4276;49.354;6.804;2023-05-10T02:50:00;4.28;;;3.97;;
8478;SDS011;4276;49.354;6.804;2023-05-10T02:52:28;4.25;;;3.95;;
8478;SDS011;4276;49.354;6.804;2023-05-10T02:54:59;5.00;;;4.57;;
8478;SDS011;4276;49.354;6.804;2023-05-10T02:57:28;5.20;;;4.80;;
8478;SDS011;4276;49.354;6.804;2023-05-10T02:59:58;5.65;;;5.07;;
8478;SDS011;4276;49.354;6.804;2023-05-10T03:02:26;5.43;;;5.03;;
8478;SDS011;4276;49.354;6.804;2023-05-10T03:04:53;5.88;;;5.28;;
8478;SDS011;4276;49.354;6.804;2023-05-10T03:07:19;6.22;;;5.63;;
8478;SDS011;4276;49.354;6.804;2023-05-10T03:09:47;5.25;;;4.95;;
8478;SDS011;4276;49.354;6.804;2023-05-10T03:17:42;5.47;;;5.07;;
8478;SDS011;4276;49.354;6.804;2023-05-10T03:20:43;6.70;;;6.05;;
8478;SDS011;4276;49.354;6.804;2023-05-10T03:23:17;5.88;;;5.38;;
8478;SDS011;4276;49.354;6.804;2023-05-10T03:25:48;5.80;;;5.30;;
8478;SDS011;4276;49.354;6.804;2023-05-10T03:28:16;5.60;;;5.20;;
8478;SDS011;4276;49.354;6.804;2023-05-10T03:30:44;5.70;;;5.20;;
8478;SDS011;4276;49.354;6.804;2023-05-10T03:33:11;6.30;;;5.75;;
8478;SDS011;4276;49.354;6.804;2023-05-10T03:35:38;5.30;;;4.90;;
8478;SDS011;4276;49.354;6.804;2023-05-10T03:38:05;5.60;;;5.20;;
8478;SDS011;4276;49.354;6.804;2023-05-10T03:40:31;5.47;;;5.07;;
8478;SDS011;4276;49.354;6.804;2023-05-10T03:42:58;5.90;;;5.40;;
8478;SDS011;4276;49.354;6.804;2023-05-10T03:45:25;5.38;;;4.97;;
8478;SDS011;4276;49.354;6.804;2023-05-10T03:47:51;5.40;;;4.90;;
8478;SDS011;4276;49.354;6.804;2023-05-10T03:50:18;4.53;;;4.22;;
8478;SDS011;4276;49.354;6.804;2023-05-10T03:52:45;4.53;;;4.13;;
8478;SDS011;4276;49.354;6.804;2023-05-10T03:55:11;4.65;;;4.25;;
8478;SDS011;4276;49.354;6.804;2023-05-10T03:57:38;4.53;;;4.20;;
8478;SDS011;4276;49.354;6.804;2023-05-10T04:00:04;4.45;;;4.05;;
8478;SDS011;4276;49.354;6.804;2023-05-10T04:02:31;4.88;;;4.47;;
8478;SDS011;4276;49.354;6.804;2023-05-10T04:04:58;4.30;;;4.00;;
8478;SDS011;4276;49.354;6.804;2023-05-10T04:07:24;4.00;;;3.80;;
8478;SDS011;4276;49.354;6.804;2023-05-10T04:09:51;4.70;;;4.30;;
8478;SDS011;4276;49.354;6.804;2023-05-10T04:12:17;3.67;;;3.47;;
8478;SDS011;4276;49.354;6.804;2023-05-10T04:14:43;3.60;;;3.40;;
8478;SDS011;4276;49.354;6.804;2023-05-10T04:17:10;3.90;;;3.60;;
8478;SDS011;4276;49.354;6.804;2023-05-10T04:19:37;3.88;;;3.47;;
8478;SDS011;4276;49.354;6.804;2023-05-10T04:22:03;3.30;;;3.10;;
8478;SDS011;4276;49.354;6.804;2023-05-10T04:24:30;3.00;;;2.80;;
8478;SDS011;4276;49.354;6.804;2023-05-10T04:26:56;2.97;;;2.78;;
8478;SDS011;4276;49.354;6.804;2023-05-10T04:29:23;3.10;;;2.80;;
8478;SDS011;4276;49.354;6.804;2023-05-10T04:31:49;3.30;;;3.10;;
8478;SDS011;4276;49.354;6.804;2023-05-10T04:34:17;3.55;;;3.22;;
8478;SDS011;4276;49.354;6.804;2023-05-10T04:36:43;3.80;;;3.25;;
8478;SDS011;4276;49.354;6.804;2023-05-10T04:39:10;3.53;;;3.20;;
8478;SDS011;4276;49.354;6.804;2023-05-10T04:41:37;4.10;;;3.80;;
8478;SDS011;4276;49.354;6.804;2023-05-10T04:44:03;3.60;;;3.30;;
8478;SDS011;4276;49.354;6.804;2023-05-10T04:46:30;3.50;;;3.20;;
8478;SDS011;4276;49.354;6.804;2023-05-10T04:48:56;2.83;;;2.63;;
8478;SDS011;4276;49.354;6.804;2023-05-10T04:51:23;3.25;;;3.05;;
8478;SDS011;4276;49.354;6.804;2023-05-10T04:53:50;2.67;;;2.58;;
8478;SDS011;4276;49.354;6.804;2023-05-10T04:56:31;2.90;;;2.70;;
8478;SDS011;4276;49.354;6.804;2023-05-10T04:58:57;4.13;;;2.97;;
8478;SDS011;4276;49.354;6.804;2023-05-10T05:01:24;3.40;;;3.00;;
8478;SDS011;4276;49.354;6.804;2023-05-10T05:03:50;3.97;;;3.67;;
8478;SDS011;4276;49.354;6.804;2023-05-10T05:06:19;4.10;;;3.75;;
8478;SDS011;4276;49.354;6.804;2023-05-10T05:08:47;3.63;;;3.42;;
8478;SDS011;4276;49.354;6.804;2023-05-10T05:11:15;4.05;;;3.75;;
8478;SDS011;4276;49.354;6.804;2023-05-10T05:13:41;4.63;;;3.55;;
8478;SDS011;4276;49.354;6.804;2023-05-10T05:16:08;4.50;;;4.20;;
8478;SDS011;4276;49.354;6.804;2023-05-10T05:18:34;5.00;;;4.60;;
8478;SDS011;4276;49.354;6.804;2023-05-10T05:21:01;5.10;;;4.70;;
8478;SDS011;4276;49.354;6.804;2023-05-10T05:23:28;5.35;;;4.95;;
8478;SDS011;4276;49.354;6.804;2023-05-10T05:25:54;4.40;;;4.10;;
8478;SDS011;4276;49.354;6.804;2023-05-10T05:28:20;5.28;;;4.88;;
8478;SDS011;4276;49.354;6.804;2023-05-10T05:30:47;4.75;;;4.40;;
8478;SDS011;4276;49.354;6.804;2023-05-10T05:33:14;4.18;;;3.88;;
8478;SDS011;4276;49.354;6.804;2023-05-10T05:35:42;4.30;;;3.90;;
8478;SDS011;4276;49.354;6.804;2023-05-10T05:38:16;4.10;;;3.70;;
8478;SDS011;4276;49.354;6.804;2023-05-10T05:40:43;4.13;;;3.70;;
8478;SDS011;4276;49.354;6.804;2023-05-10T05:43:11;4.75;;;4.30;;
8478;SDS011;4276;49.354;6.804;2023-05-10T05:45:38;3.78;;;3.38;;
8478;SDS011;4276;49.354;6.804;2023-05-10T05:48:04;3.88;;;3.42;;
8478;SDS011;4276;49.354;6.804;2023-05-10T05:50:31;3.50;;;2.83;;
8478;SDS011;4276;49.354;6.804;2023-05-10T05:52:57;3.22;;;2.42;;
8478;SDS011;4276;49.354;6.804;2023-05-10T05:55:24;2.95;;;2.65;;
8478;SDS011;4276;49.354;6.804;2023-05-10T05:57:52;4.25;;;3.90;;
8478;SDS011;4276;49.354;6.804;2023-05-10T06:00:18;2.70;;;2.50;;
8478;SDS011;4276;49.354;6.804;2023-05-10T06:02:45;3.20;;;2.90;;
8478;SDS011;4276;49.354;6.804;2023-05-10T06:05:11;2.80;;;2.58;;
8478;SDS011;4276;49.354;6.804;2023-05-10T06:07:40;2.75;;;2.20;;
8478;SDS011;4276;49.354;6.804;2023-05-10T06:10:08;2.97;;;2.60;;
8478;SDS011;4276;49.354;6.804;2023-05-10T06:12:35;2.75;;;2.55;;
8478;SDS011;4276;49.354;6.804;2023-05-10T06:15:02;3.05;;;2.72;;
8478;SDS011;4276;49.354;6.804;2023-05-10T06:17:29;2.75;;;2.55;;
8478;SDS011;4276;49.354;6.804;2023-05-10T06:19:56;3.05;;;2.83;;
8478;SDS011;4276;49.354;6.804;2023-05-10T06:22:22;3.50;;;2.85;;
8478;SDS011;4276;49.354;6.804;2023-05-10T06:24:49;2.33;;;2.20;;
8478;SDS011;4276;49.354;6.804;2023-05-10T06:27:15;2.47;;;2.35;;
8478;SDS011;4276;49.354;6.804;2023-05-10T06:29:42;3.47;;;2.65;;
8478;SDS011;4276;49.354;6.804;2023-05-10T06:32:08;3.35;;;2.55;;
8478;SDS011;4276;49.354;6.804;2023-05-10T06:34:35;2.80;;;2.47;;
8478;SDS011;4276;49.354;6.804;2023-05-10T06:37:01;2.53;;;2.33;;
8478;SDS011;4276;49.354;6.804;2023-05-10T06:39:29;7.20;;;3.92;;
8478;SDS011;4276;49.354;6.804;2023-05-10T06:41:55;2.70;;;2.50;;
8478;SDS011;4276;49.354;6.804;2023-05-10T06:44:25;2.08;;;1.98;;
8478;SDS011;4276;49.354;6.804;2023-05-10T06:46:51;2.30;;;2.20;;
8478;SDS011;4276;49.354;6.804;2023-05-10T06:49:19;2.67;;;2.47;;
8478;SDS011;4276;49.354;6.804;2023-05-10T06:51:46;2.20;;;2.03;;
8478;SDS011;4276;49.354;6.804;2023-05-10T06:54:13;6.05;;;2.55;;
8478;SDS011;4276;49.354;6.804;2023-05-10T06:56:39;2.70;;;2.50;;
8478;SDS011;4276;49.354;6.804;2023-05-10T06:59:05;2.53;;;2.33;;
8478;SDS011;4276;49.354;6.804;2023-05-10T07:01:32;3.72;;;3.42;;
8478;SDS011;4276;49.354;6.804;2023-05-10T07:03:59;2.97;;;2.75;;
8478;SDS011;4276;49.354;6.804;2023-05-10T07:06:25;2.30;;;2.20;;
8478;SDS011;4276;49.354;6.804;2023-05-10T07:08:58;2.75;;;2.38;;
8478;SDS011;4276;49.354;6.804;2023-05-10T07:11:25;2.08;;;1.98;;
8478;SDS011;4276;49.354;6.804;2023-05-10T07:13:52;3.60;;;2.10;;
8478;SDS011;4276;49.354;6.804;2023-05-10T07:16:19;2.50;;;2.30;;
8478;SDS011;4276;49.354;6.804;2023-05-10T07:18:45;3.20;;;2.50;;
8478;SDS011;4276;49.354;6.804;2023-05-10T07:21:12;2.50;;;2.40;;
8478;SDS011;4276;49.354;6.804;2023-05-10T07:23:39;3.25;;;3.05;;
8478;SDS011;4276;49.354;6.804;2023-05-10T07:26:07;9.15;;;7.32;;
8478;SDS011;4276;49.354;6.804;2023-05-10T07:28:35;3.20;;;3.00;;
8478;SDS011;4276;49.354;6.804;2023-05-10T07:31:03;2.17;;;2.08;;
8478;SDS011;4276;49.354;6.804;2023-05-10T07:33:30;2.42;;;2.05;;
8478;SDS011;4276;49.354;6.804;2023-05-10T07:35:56;2.13;;;1.92;;
8478;SDS011;4276;49.354;6.804;2023-05-10T07:38:22;1.95;;;1.85;;
8478;SDS011;4276;49.354;6.804;2023-05-10T07:40:49;1.90;;;1.80;;
8478;SDS011;4276;49.354;6.804;2023-05-10T07:43:15;2.08;;;1.90;;
8478;SDS011;4276;49.354;6.804;2023-05-10T07:45:42;2.42;;;2.30;;
8478;SDS011;4276;49.354;6.804;2023-05-10T07:48:09;3.70;;;2.17;;
8478;SDS011;4276;49.354;6.804;2023-05-10T07:50:36;2.42;;;2.08;;
8478;SDS011;4276;49.354;6.804;2023-05-10T07:53:02;2.58;;;2.25;;
8478;SDS011;4276;49.354;6.804;2023-05-10T07:55:28;2.05;;;1.70;;
8478;SDS011;4276;49.354;6.804;2023-05-10T07:57:55;1.90;;;1.80;;
8478;SDS011;4276;49.354;6.804;2023-05-10T08:00:22;2.00;;;1.90;;
8478;SDS011;4276;49.354;6.804;2023-05-10T08:02:48;2.67;;;2.38;;
8478;SDS011;4276;49.354;6.804;2023-05-10T08:05:15;2.33;;;2.13;;
8478;SDS011;4276;49.354;6.804;2023-05-10T08:07:42;2.67;;;2.10;;
8478;SDS011;4276;49.354;6.804;2023-05-10T08:10:08;2.03;;;1.83;;
8478;SDS011;4276;49.354;6.804;2023-05-10T08:12:35;1.98;;;1.85;;
8478;SDS011;4276;49.354;6.804;2023-05-10T08:15:02;3.42;;;1.95;;
8478;SDS011;4276;49.354;6.804;2023-05-10T08:17:29;2.30;;;1.90;;
8478;SDS011;4276;49.354;6.804;2023-05-10T08:19:55;2.17;;;1.98;;
8478;SDS011;4276;49.354;6.804;2023-05-10T08:22:22;1.90;;;1.80;;
8478;SDS011;4276;49.354;6.804;2023-05-10T08:24:48;2.42;;;1.67;;
8478;SDS011;4276;49.354;6.804;2023-05-10T08:27:15;4.25;;;1.80;;
8478;SDS011;4276;49.354;6.804;2023-05-10T08:29:41;3.95;;;1.70;;
8478;SDS011;4276;49.354;6.804;2023-05-10T08:32:15;2.42;;;1.77;;
8478;SDS011;4276;49.354;6.804;2023-05-10T08:34:42;3.20;;;1.85;;
8478;SDS011;4276;49.354;6.804;2023-05-10T08:37:08;2.25;;;1.80;;
8478;SDS011;4276;49.354;6.804;2023-05-10T08:39:36;3.97;;;2.00;;
8478;SDS011;4276;49.354;6.804;2023-05-10T08:42:04;2.97;;;1.70;;
8478;SDS011;4276;49.354;6.804;2023-05-10T08:44:32;2.75;;;1.83;;
8478;SDS011;4276;49.354;6.804;2023-05-10T08:46:58;2.72;;;2.03;;
8478;SDS011;4276;49.354;6.804;2023-05-10T08:49:25;4.50;;;1.70;;
8478;SDS011;4276;49.354;6.804;2023-05-10T08:51:54;2.28;;;1.63;;
8478;SDS011;4276;49.354;6.804;2023-05-10T08:54:21;5.50;;;1.92;;
8478;SDS011;4276;49.354;6.804;2023-05-10T08:56:48;2.78;;;1.45;;
8478;SDS011;4276;49.354;6.804;2023-05-10T08:59:15;4.00;;;1.63;;
8478;SDS011;4276;49.354;6.804;2023-05-10T09:01:42;2.15;;;1.60;;
8478;SDS011;4276;49.354;6.804;2023-05-10T09:04:10;3.17;;;1.33;;
8478;SDS011;4276;49.354;6.804;2023-05-10T09:06:38;2.50;;;1.40;;
8478;SDS011;4276;49.354;6.804;2023-05-10T09:09:04;2.47;;;1.58;;
8478;SDS011;4276;49.354;6.804;2023-05-10T09:11:31;3.13;;;1.85;;
8478;SDS011;4276;49.354;6.804;2023-05-10T09:13:58;2.60;;;1.45;;
8478;SDS011;4276;49.354;6.804;2023-05-10T09:16:24;1.63;;;1.25;;
8478;SDS011;4276;49.354;6.804;2023-05-10T09:18:51;2.60;;;1.35;;
8478;SDS011;4276;49.354;6.804;2023-05-10T09:21:18;2.10;;;1.38;;
8478;SDS011;4276;49.354;6.804;2023-05-10T09:23:45;2.05;;;1.38;;
8478;SDS011;4276;49.354;6.804;2023-05-10T09:26:14;2.03;;;1.15;;
8478;SDS011;4276;49.354;6.804;2023-05-10T09:28:53;2.75;;;1.20;;
8478;SDS011;4276;49.354;6.804;2023-05-10T09:31:22;3.20;;;1.60;;
8478;SDS011;4276;49.354;6.804;2023-05-10T09:33:49;1.23;;;1.20;;
8478;SDS011;4276;49.354;6.804;2023-05-10T09:36:16;2.80;;;2.28;;
8478;SDS011;4276;49.354;6.804;2023-05-10T09:43:44;1.85;;;1.67;;
8478;SDS011;4276;49.354;6.804;2023-05-10T09:46:10;2.50;;;1.55;;
8478;SDS011;4276;49.354;6.804;2023-05-10T09:48:44;1.40;;;1.27;;
8478;SDS011;4276;49.354;6.804;2023-05-10T09:51:21;1.45;;;1.35;;
8478;SDS011;4276;49.354;6.804;2023-05-10T09:54:08;1.15;;;1.10;;
8478;SDS011;4276;49.354;6.804;2023-05-10T09:56:39;2.97;;;1.60;;
8478;SDS011;4276;49.354;6.804;2023-05-10T09:59:07;2.92;;;2.28;;
8478;SDS011;4276;49.354;6.804;2023-05-10T10:01:36;3.53;;;2.00;;
8478;SDS011;4276;49.354;6.804;2023-05-10T10:04:04;3.88;;;1.45;;
8478;SDS011;4276;49.354;6.804;2023-05-10T10:06:35;4.35;;;1.65;;
8478;SDS011;4276;49.354;6.804;2023-05-10T10:09:05;1.67;;;1.02;;
8478;SDS011;4276;49.354;6.804;2023-05-10T10:11:33;2.50;;;1.20;;
8478;SDS011;4276;49.354;6.804;2023-05-10T10:14:01;1.73;;;1.33;;
8478;SDS011;4276;49.354;6.804;2023-05-10T10:16:30;2.60;;;1.67;;
8478;SDS011;4276;49.354;6.804;2023-05-10T10:18:58;2.53;;;1.25;;
8478;SDS011;4276;49.354;6.804;2023-05-10T10:21:24;4.97;;;4.18;;
8478;SDS011;4276;49.354;6.804;2023-05-10T10:23:51;7.50;;;6.75;;
8478;SDS011;4276;49.354;6.804;2023-05-10T10:26:19;6.03;;;4.20;;
8478;SDS011;4276;49.354;6.804;2023-05-10T10:36:45;2.55;;;1.60;;
8478;SDS011;4276;49.354;6.804;2023-05-10T10:39:13;1.30;;;1.20;;
8478;SDS011;4276;49.354;6.804;2023-05-10T10:41:49;2.60;;;1.30;;
8478;SDS011;4276;49.354;6.804;2023-05-10T10:52:25;3.90;;;2.38;;
8478;SDS011;4276;49.354;6.804;2023-05-10T10:55:01;3.55;;;2.25;;
8478;SDS011;4276;49.354;6.804;2023-05-10T10:57:30;2.20;;;1.30;;
8478;SDS011;4276;49.354;6.804;2023-05-10T11:02:51;2.55;;;1.13;;
8478;SDS011;4276;49.354;6.804;2023-05-10T11:07:59;1.75;;;0.90;;
8478;SDS011;4276;49.354;6.804;2023-05-10T11:10:26;1.17;;;1.10;;
8478;SDS011;4276;49.354;6.804;2023-05-10T11:13:03;2.28;;;1.30;;
8478;SDS011;4276;49.354;6.804;2023-05-10T11:15:33;1.75;;;1.65;;
8478;SDS011;4276;49.354;6.804;2023-05-10T11:18:20;2.42;;;1.38;;
8478;SDS011;4276;49.354;6.804;2023-05-10T11:20:51;1.23;;;1.10;;
8478;SDS011;4276;49.354;6.804;2023-05-10T11:23:18;2.05;;;1.10;;
8478;SDS011;4276;49.354;6.804;2023-05-10T11:25:46;1.25;;;1.15;;
8478;SDS011;4276;49.354;6.804;2023-05-10T11:28:14;1.42;;;0.90;;
8478;SDS011;4276;49.354;6.804;2023-05-10T11:30:41;1.55;;;1.20;;
8478;SDS011;4276;49.354;6.804;2023-05-10T11:33:08;1.35;;;1.27;;
8478;SDS011;4276;49.354;6.804;2023-05-10T11:35:38;1.60;;;1.20;;
8478;SDS011;4276;49.354;6.804;2023-05-10T11:38:09;0.60;;;0.60;;
8478;SDS011;4276;49.354;6.804;2023-05-10T11:40:36;1.42;;;0.90;;
8478;SDS011;4276;49.354;6.804;2023-05-10T11:43:04;2.50;;;1.00;;
8478;SDS011;4276;49.354;6.804;2023-05-10T11:45:32;1.73;;;1.10;;
8478;SDS011;4276;49.354;6.804;2023-05-10T11:47:59;1.83;;;0.88;;
8478;SDS011;4276;49.354;6.804;2023-05-10T11:50:25;0.85;;;0.85;;
8478;SDS011;4276;49.354;6.804;2023-05-10T11:52:53;1.20;;;0.77;;
8478;SDS011;4276;49.354;6.804;2023-05-10T11:55:20;2.83;;;2.10;;
8478;SDS011;4276;49.354;6.804;2023-05-10T11:57:46;1.00;;;0.90;;
8478;SDS011;4276;49.354;6.804;2023-05-10T12:00:13;3.58;;;1.10;;
8478;SDS011;4276;49.354;6.804;2023-05-10T12:02:40;1.30;;;0.88;;
8478;SDS011;4276;49.354;6.804;2023-05-10T12:05:07;1.00;;;0.88;;
8478;SDS011;4276;49.354;6.804;2023-05-10T12:07:34;2.38;;;1.23;;
8478;SDS011;4276;49.354;6.804;2023-05-10T12:10:13;0.80;;;0.80;;
8478;SDS011;4276;49.354;6.804;2023-05-10T12:12:45;1.10;;;1.10;;
8478;SDS011;4276;49.354;6.804;2023-05-10T12:17:45;1.10;;;0.95;;
8478;SDS011;4276;49.354;6.804;2023-05-10T12:20:12;2.00;;;1.15;;
8478;SDS011;4276;49.354;6.804;2023-05-10T12:22:43;1.60;;;1.20;;
8478;SDS011;4276;49.354;6.804;2023-05-10T12:25:10;1.92;;;1.00;;
8478;SDS011;4276;49.354;6.804;2023-05-10T12:27:37;2.85;;;1.05;;
8478;SDS011;4276;49.354;6.804;2023-05-10T12:30:04;1.27;;;0.90;;
8478;SDS011;4276;49.354;6.804;2023-05-10T12:32:37;0.70;;;0.70;;
8478;SDS011;4276;49.354;6.804;2023-05-10T12:35:07;0.57;;;0.57;;
8478;SDS011;4276;49.354;6.804;2023-05-10T12:37:34;1.90;;;0.90;;
8478;SDS011;4276;49.354;6.804;2023-05-10T12:40:05;1.30;;;1.08;;
8478;SDS011;4276;49.354;6.804;2023-05-10T12:42:35;1.77;;;0.90;;
8478;SDS011;4276;49.354;6.804;2023-05-10T12:45:03;1.33;;;1.17;;
8478;SDS011;4276;49.354;6.804;2023-05-10T12:47:30;1.08;;;0.90;;
8478;SDS011;4276;49.354;6.804;2023-05-10T12:49:57;1.77;;;1.20;;
8478;SDS011;4276;49.354;6.804;2023-05-10T12:52:24;1.10;;;1.00;;
8478;SDS011;4276;49.354;6.804;2023-05-10T12:54:52;0.70;;;0.70;;
8478;SDS011;4276;49.354;6.804;2023-05-10T12:57:21;1.25;;;1.05;;
8478;SDS011;4276;49.354;6.804;2023-05-10T12:59:48;0.90;;;0.90;;
8478;SDS011;4276;49.354;6.804;2023-05-10T13:02:15;0.82;;;0.70;;
8478;SDS011;4276;49.354;6.804;2023-05-10T13:04:44;1.38;;;1.10;;
8478;SDS011;4276;49.354;6.804;2023-05-10T13:07:14;1.17;;;0.82;;
8478;SDS011;4276;49.354;6.804;2023-05-10T13:09:41;1.98;;;1.20;;
8478;SDS011;4276;49.354;6.804;2023-05-10T13:12:07;1.00;;;0.90;;
8478;SDS011;4276;49.354;6.804;2023-05-10T13:14:35;0.95;;;0.80;;
8478;SDS011;4276;49.354;6.804;2023-05-10T13:17:02;0.75;;;0.75;;
8478;SDS011;4276;49.354;6.804;2023-05-10T13:19:28;1.30;;;0.90;;
8478;SDS011;4276;49.354;6.804;2023-05-10T13:21:55;0.98;;;0.80;;
8478;SDS011;4276;49.354;6.804;2023-05-10T13:24:21;0.60;;;0.60;;
8478;SDS011;4276;49.354;6.804;2023-05-10T13:26:48;0.95;;;0.90;;
8478;SDS011;4276;49.354;6.804;2023-05-10T13:29:15;1.67;;;0.90;;
8478;SDS011;4276;49.354;6.804;2023-05-10T13:31:44;1.25;;;0.90;;
8478;SDS011;4276;49.354;6.804;2023-05-10T13:34:10;0.93;;;0.80;;
8478;SDS011;4276;49.354;6.804;2023-05-10T13:36:37;1.83;;;0.73;;
8478;SDS011;4276;49.354;6.804;2023-05-10T13:39:04;1.50;;;0.90;;
8478;SDS011;4276;49.354;6.804;2023-05-10T13:41:31;1.08;;;0.90;;
8478;SDS011;4276;49.354;6.804;2023-05-10T13:43:58;3.05;;;1.00;;
8478;SDS011;4276;49.354;6.804;2023-05-10T13:46:24;0.93;;;0.73;;
8478;SDS011;4276;49.354;6.804;2023-05-10T13:48:51;2.50;;;0.90;;
8478;SDS011;4276;49.354;6.804;2023-05-10T13:51:17;1.30;;;0.90;;
8478;SDS011;4276;49.354;6.804;2023-05-10T13:53:43;0.90;;;0.80;;
8478;SDS011;4276;49.354;6.804;2023-05-10T13:56:10;1.30;;;0.80;;
8478;SDS011;4276;49.354;6.804;2023-05-10T13:58:37;2.22;;;0.90;;
8478;SDS011;4276;49.354;6.804;2023-05-10T14:01:03;2.90;;;1.13;;
8478;SDS011;4276;49.354;6.804;2023-05-10T14:03:30;1.83;;;1.33;;
8478;SDS011;4276;49.354;6.804;2023-05-10T14:05:57;1.88;;;0.90;;
8478;SDS011;4276;49.354;6.804;2023-05-10T14:08:24;1.92;;;1.00;;
8478;SDS011;4276;49.354;6.804;2023-05-10T14:10:50;1.23;;;0.77;;
8478;SDS011;4276;49.354;6.804;2023-05-10T14:13:18;1.05;;;0.63;;
8478;SDS011;4276;49.354;6.804;2023-05-10T14:15:44;0.75;;;0.75;;
8478;SDS011;4276;49.354;6.804;2023-05-10T14:18:11;1.35;;;0.82;;
8478;SDS011;4276;49.354;6.804;2023-05-10T14:20:37;0.70;;;0.70;;
8478;SDS011;4276;49.354;6.804;2023-05-10T14:23:04;0.85;;;0.70;;
8478;SDS011;4276;49.354;6.804;2023-05-10T14:25:30;1.88;;;1.10;;
8478;SDS011;4276;49.354;6.804;2023-05-10T14:27:57;1.25;;;1.10;;
8478;SDS011;4276;49.354;6.804;2023-05-10T14:30:23;0.82;;;0.82;;
8478;SDS011;4276;49.354;6.804;2023-05-10T14:32:49;1.30;;;1.20;;
8478;SDS011;4276;49.354;6.804;2023-05-10T14:35:16;0.80;;;0.80;;
8478;SDS011;4276;49.354;6.804;2023-05-10T14:37:45;1.70;;;1.10;;
8478;SDS011;4276;49.354;6.804;2023-05-10T14:40:11;2.65;;;1.20;;
8478;SDS011;4276;49.354;6.804;2023-05-10T14:42:38;1.75;;;1.20;;
8478;SDS011;4276;49.354;6.804;2023-05-10T14:45:05;2.88;;;1.30;;
8478;SDS011;4276;49.354;6.804;2023-05-10T14:47:32;2.45;;;1.55;;
8478;SDS011;4276;49.354;6.804;2023-05-10T14:49:58;1.73;;;0.82;;
8478;SDS011;4276;49.354;6.804;2023-05-10T14:52:25;1.05;;;1.05;;
8478;SDS011;4276;49.354;6.804;2023-05-10T14:54:51;2.13;;;1.20;;
8478;SDS011;4276;49.354;6.804;2023-05-10T14:57:18;1.38;;;1.10;;
8478;SDS011;4276;49.354;6.804;2023-05-10T14:59:44;1.30;;;1.20;;
8478;SDS011;4276;49.354;6.804;2023-05-10T15:02:11;1.60;;;1.50;;
8478;SDS011;4276;49.354;6.804;2023-05-10T15:04:40;2.10;;;1.90;;
8478;SDS011;4276;49.354;6.804;2023-05-10T15:07:06;2.05;;;1.20;;
8478;SDS011;4276;49.354;6.804;2023-05-10T15:09:33;2.60;;;1.40;;
8478;SDS011;4276;49.354;6.804;2023-05-10T15:11:59;2.53;;;1.35;;
8478;SDS011;4276;49.354;6.804;2023-05-10T15:14:26;1.33;;;1.23;;
8478;SDS011;4276;49.354;6.804;2023-05-10T15:16:53;1.45;;;1.35;;
8478;SDS011;4276;49.354;6.804;2023-05-10T15:19:19;1.00;;;0.82;;
8478;SDS011;4276;49.354;6.804;2023-05-10T15:21:46;0.82;;;0.82;;
8478;SDS011;4276;49.354;6.804;2023-05-10T15:24:13;0.77;;;0.77;;
8478;SDS011;4276;49.354;6.804;2023-05-10T15:26:40;1.83;;;0.63;;
8478;SDS011;4276;49.354;6.804;2023-05-10T15:29:07;1.25;;;0.63;;
8478;SDS011;4276;49.354;6.804;2023-05-10T15:31:34;1.33;;;0.63;;
8478;SDS011;4276;49.354;6.804;2023-05-10T15:34:03;0.80;;;0.80;;
8478;SDS011;4276;49.354;6.804;2023-05-10T15:36:31;0.70;;;0.70;;
8478;SDS011;4276;49.354;6.804;2023-05-10T15:38:57;1.08;;;0.88;;
8478;SDS011;4276;49.354;6.804;2023-05-10T15:41:24;1.20;;;0.70;;
8478;SDS011;4276;49.354;6.804;2023-05-10T15:43:51;0.95;;;0.80;;
8478;SDS011;4276;49.354;6.804;2023-05-10T15:46:17;0.80;;;0.80;;
8478;SDS011;4276;49.354;6.804;2023-05-10T15:48:44;0.75;;;0.75;;
8478;SDS011;4276;49.354;6.804;2023-05-10T15:51:10;0.70;;;0.70;;
8478;SDS011;4276;49.354;6.804;2023-05-10T15:53:37;0.57;;;0.55;;
8478;SDS011;4276;49.354;6.804;2023-05-10T15:56:11;0.50;;;0.50;;
8478;SDS011;4276;49.354;6.804;2023-05-10T15:58:39;0.50;;;0.50;;
8478;SDS011;4276;49.354;6.804;2023-05-10T16:01:05;0.60;;;0.60;;
8478;SDS011;4276;49.354;6.804;2023-05-10T16:03:33;0.63;;;0.50;;
8478;SDS011;4276;49.354;6.804;2023-05-10T16:06:02;0.40;;;0.40;;